Date,TemperatureHighF,TemperatureAvgF,TemperatureLowF,DewpointHighF,DewpointAvgF,DewpointLowF,HumidityHigh,HumidityAvg,HumidityLow,PressureMaxIn,PressureMinIn,WindSpeedMaxMPH,WindSpeedAvgMPH,GustSpeedMaxMPH,PrecipitationSumIn
2014-1-1,54.0,48.1,42.6,50.4,46.0,41.0,95,92,86,30.34,30.07,7,1,8,0.00
2014-1-2,57.4,48.3,32.5,54.5,44.7,25.7,97,88,68,30.26,29.89,21,3,25,0.00
2014-1-3,42.1,32.2,25.3,25.9,20.9,17.8,79,64,41,30.44,30.26,10,2,17,0.05
2014-1-4,48.4,37.5,29.7,39.4,30.0,20.8,88,74,59,30.37,30.11,13,4,13,0.08
2014-1-5,60.8,51.9,38.3,59.4,48.7,35.2,96,89,78,30.11,29.86,17,2,22,0.01
2014-1-6,48.4,30.7,20.1,46.0,18.4,3.7,94,63,36,30.55,29.95,20,4,22,0.01
2014-1-7,30.4,21.8,14.7,10.6,5.7,1.9,65,50,34,30.66,30.51,8,1,12,0.00
2014-1-8,46.8,31.7,17.2,23.5,13.0,9.9,79,50,23,30.57,30.40,11,1,13,0.45
2014-1-9,48.9,44.2,34.7,47.5,36.9,19.6,96,77,52,30.42,30.26,11,2,15,0.07
2014-1-10,63.5,53.7,48.0,62.6,52.7,46.9,97,97,96,30.26,29.96,9,1,12,0.05
2014-1-11,71.8,64.2,49.6,67.5,55.6,34.5,97,76,38,30.07,29.79,17,4,22,0.11
2014-1-12,65.8,51.5,37.6,44.8,38.7,34.9,93,65,34,30.24,30.07,7,1,10,0.03
2014-1-13,59.4,52.1,43.3,56.7,47.9,38.8,96,86,61,30.17,29.87,16,2,18,0.01
2014-1-14,64.0,54.7,42.3,57.6,42.6,30.0,97,68,29,30.08,29.86,14,2,16,0.00
2014-1-15,53.1,43.2,34.7,41.4,31.5,20.8,92,66,38,30.16,30.01,15,2,16,0.00
2014-1-16,51.6,38.8,27.0,32.0,21.6,14.5,74,52,28,30.23,30.09,11,2,11,0.15
2014-1-17,59.2,46.5,35.8,43.9,30.1,14.0,92,57,27,30.21,30.02,20,4,22,0.01
2014-1-18,54.5,40.1,26.6,33.8,20.0,12.2,74,48,22,30.32,30.10,12,2,14,0.27
2014-1-19,61.5,48.9,37.6,45.1,37.3,32.7,93,67,36,30.19,30.06,16,2,16,0.06
2014-1-20,65.7,48.6,32.0,44.1,37.6,29.8,92,70,35,30.14,29.96,13,2,15,0.05
2014-1-21,56.5,46.4,30.2,52.9,34.1,19.0,96,65,31,30.14,29.87,29,4,30,0.01
2014-1-22,46.8,33.7,24.6,27.9,16.4,9.1,84,52,24,30.24,30.14,10,2,12,0.15
2014-1-23,50.5,39.3,29.7,26.8,22.3,16.7,85,53,33,30.54,30.22,9,1,13,0.30
2014-1-24,37.8,33.6,26.2,17.4,7.4,1.8,47,33,23,30.62,30.30,13,2,16,0.01
2014-1-25,59.7,44.8,32.4,42.8,31.2,12.4,87,59,42,30.30,29.98,18,3,20,0.00
2014-1-26,59.4,47.3,34.9,44.6,37.0,31.6,94,71,37,30.09,29.92,8,1,10,0.00
2014-1-27,65.5,53.4,43.9,59.0,49.1,27.3,95,86,52,30.09,29.91,11,1,13,0.08
2014-1-28,43.9,31.5,23.4,28.8,21.7,13.8,93,70,43,30.28,30.07,9,1,16,0.09
2014-1-29,28.2,22.6,18.3,21.2,17.3,14.4,91,80,64,30.43,30.25,9,1,9,0.00
2014-1-30,40.3,28.2,16.0,32.0,23.3,12.4,94,82,67,30.36,30.19,11,2,13,0.23
2014-1-31,57.9,40.5,25.9,39.4,32.0,23.9,94,74,38,30.25,30.12,8,1,9,0.17
2014-2-1,72.7,56.4,46.2,57.2,49.9,39.0,95,79,56,30.15,30.06,9,1,10,0.00
2014-2-2,75.0,62.2,52.2,64.4,58.0,51.1,97,87,64,30.14,29.99,17,2,17,0.00
2014-2-3,66.0,55.9,46.9,64.2,53.1,43.9,95,90,83,30.13,29.96,10,1,13,0.18
2014-2-4,72.3,57.7,46.8,66.7,55.5,43.7,97,92,81,30.12,29.91,10,2,14,0.01
2014-2-5,68.5,52.9,37.4,67.1,47.5,31.1,97,82,65,30.26,29.89,20,3,21,0.39
2014-2-6,39.2,35.6,31.3,34.3,30.3,27.0,94,81,69,30.35,30.23,12,1,13,0.02
2014-2-7,56.7,42.4,29.8,41.0,35.0,28.4,94,77,53,30.36,30.22,9,1,9,0.02
2014-2-8,65.5,50.8,41.4,47.7,43.3,37.4,94,77,51,30.26,30.12,8,1,9,0.06
2014-2-9,66.9,52.4,37.6,49.3,44.3,36.0,95,76,50,30.20,30.06,11,1,12,0.00
2014-2-10,64.9,54.6,46.0,58.1,51.5,44.1,96,90,78,30.15,30.04,11,2,15,0.07
2014-2-11,49.1,46.5,43.0,48.0,45.2,41.7,96,95,94,30.15,30.05,15,2,18,0.18
2014-2-12,43.0,39.6,36.1,41.7,38.5,34.9,96,96,95,30.09,29.79,22,4,24,1.65
2014-2-13,55.8,43.4,35.6,39.0,35.9,33.4,95,77,48,30.01,29.85,15,3,17,0.03
2014-2-14,61.5,48.5,34.0,51.6,40.4,32.2,96,76,45,30.03,29.78,18,4,29,0.11
2014-2-15,57.4,45.5,37.2,48.0,36.4,31.3,92,72,39,30.18,29.85,18,2,19,0.11
2014-2-16,69.8,51.7,33.4,46.2,38.2,31.8,94,65,33,30.22,30.12,10,1,11,0.00
2014-2-17,70.3,57.2,42.6,60.1,52.4,40.8,96,85,65,30.21,30.11,11,2,12,0.00
2014-2-18,75.6,65.7,60.4,63.9,60.4,55.8,95,84,60,30.20,30.09,11,2,14,0.00
2014-2-19,77.7,66.2,58.3,65.7,61.7,55.4,97,86,61,30.14,30.01,14,2,16,0.00
2014-2-20,76.8,68.7,63.3,66.2,63.9,61.3,95,85,63,30.07,29.91,19,3,21,0.04
2014-2-21,68.5,57.7,44.8,67.3,44.6,31.3,96,66,28,30.10,29.87,25,2,27,1.41
2014-2-22,67.1,54.1,37.9,44.2,35.7,30.0,81,53,28,30.19,30.05,13,1,13,0.00
2014-2-23,61.0,56.1,49.6,59.9,52.1,41.2,97,87,67,30.08,29.97,9,1,10,0.45
2014-2-24,73.8,63.0,54.0,59.9,54.8,45.9,97,77,46,30.13,30.00,7,1,8,0.00
2014-2-25,73.4,61.3,48.7,57.2,51.6,42.8,93,72,51,30.09,29.91,10,1,11,0.00
2014-2-26,57.7,46.3,37.9,52.7,42.3,31.8,95,86,70,30.01,29.84,11,1,13,0.39
2014-2-27,55.2,41.6,30.6,32.4,24.6,18.0,80,54,26,30.08,29.98,10,1,12,0.00
2014-2-28,62.8,46.4,28.8,37.0,28.7,22.6,88,54,27,30.16,30.04,11,2,13,0.00
2014-3-1,72.7,57.8,45.3,54.1,47.0,36.5,90,68,50,30.25,30.12,9,2,10,0.00
2014-3-2,76.6,61.6,47.7,55.0,48.7,36.3,96,68,27,30.22,29.99,13,2,13,0.00
2014-3-3,65.5,50.5,36.3,63.0,47.3,32.2,96,89,77,30.17,29.91,17,2,19,0.04
2014-3-4,43.0,39.6,34.9,41.7,36.9,30.9,95,90,85,30.19,30.07,9,1,9,0.02
2014-3-5,60.1,49.2,40.6,48.4,44.0,38.3,94,83,62,30.17,30.03,10,2,13,0.02
2014-3-6,49.8,46.4,39.4,48.4,44.6,37.4,95,93,89,30.04,29.92,14,3,17,0.22
2014-3-7,60.4,47.1,38.5,48.0,42.3,36.7,95,84,62,30.08,29.94,10,1,13,0.00
2014-3-8,68.0,54.1,39.7,52.7,47.3,38.1,96,80,55,30.22,30.07,12,2,12,0.00
2014-3-9,74.3,61.6,50.0,56.3,51.2,48.4,95,72,44,30.23,30.10,10,1,11,0.00
2014-3-10,77.4,63.8,48.9,56.1,52.3,46.9,95,69,44,30.15,29.95,12,2,14,0.00
2014-3-11,75.0,63.4,55.2,62.1,57.5,52.7,94,82,59,29.97,29.73,11,2,18,0.06
2014-3-12,70.7,60.8,44.6,61.9,54.4,32.4,96,80,60,30.08,29.66,14,5,25,0.06
2014-3-13,62.2,49.1,36.9,40.3,33.4,29.5,90,57,34,30.27,30.08,11,1,18,0.00
2014-3-14,69.6,52.9,36.0,46.6,38.7,32.2,92,63,29,30.33,30.16,13,2,14,0.00
2014-3-15,64.9,57.5,49.8,58.3,53.3,45.1,93,86,76,30.18,29.95,7,1,7,0.00
2014-3-16,67.3,62.3,59.4,64.9,60.1,55.4,97,93,85,29.95,29.64,41,3,51,0.70
2014-3-17,60.4,54.6,46.6,58.8,53.2,45.1,96,95,94,29.86,29.61,9,2,12,0.42
2014-3-18,57.9,50.4,44.4,51.8,47.5,43.3,96,90,78,30.07,29.78,8,1,10,0.05
2014-3-19,73.0,59.9,50.5,54.0,51.2,48.9,95,75,47,30.17,30.03,9,2,11,0.02
2014-3-20,76.1,62.0,49.8,56.5,48.6,39.9,95,66,32,30.12,30.02,10,1,12,0.00
2014-3-21,77.2,61.7,44.1,56.5,44.0,36.7,87,56,30,30.15,30.00,10,1,11,0.00
2014-3-22,79.3,65.6,55.8,59.5,54.5,47.7,97,72,34,30.10,29.96,9,1,10,0.00
2014-3-23,70.0,60.4,53.4,62.2,56.7,47.8,97,88,75,30.18,29.97,11,1,13,0.11
2014-3-24,66.7,57.8,49.1,50.5,45.6,39.0,85,65,46,30.16,29.95,13,2,15,0.00
2014-3-25,60.6,52.5,43.5,49.8,33.5,23.7,85,51,27,30.25,29.95,26,3,28,0.00
2014-3-26,58.3,46.0,31.6,35.1,26.2,19.6,80,49,25,30.41,30.24,13,1,13,0.00
2014-3-27,72.0,57.8,43.7,56.7,45.5,32.5,85,64,50,30.27,30.10,16,4,18,0.00
2014-3-28,61.3,59.3,55.9,58.8,57.1,54.5,96,93,85,30.14,29.88,16,3,22,1.81
2014-3-29,72.7,61.3,52.7,61.2,54.7,42.8,97,80,57,30.14,29.86,20,4,24,0.48
2014-3-30,72.0,56.4,42.8,43.7,41.2,36.9,89,61,29,30.22,30.11,10,1,13,0.00
2014-3-31,80.1,61.1,42.1,44.8,40.6,30.4,93,53,17,30.20,30.07,9,1,9,0.00
2014-4-1,82.0,62.6,44.1,56.1,45.2,30.6,93,61,16,30.20,30.08,12,1,16,0.00
2014-4-2,81.5,66.4,55.9,65.5,59.2,53.1,97,80,50,30.17,30.08,12,2,15,0.00
2014-4-3,81.9,70.1,61.9,66.7,62.0,59.5,95,78,51,30.10,29.99,17,3,19,0.00
2014-4-4,76.3,67.3,62.2,68.2,63.3,60.1,95,88,65,30.08,29.91,11,2,15,0.05
2014-4-5,71.4,65.1,61.5,61.5,59.4,55.9,95,82,68,30.07,29.96,8,0,8,0.10
2014-4-6,68.4,61.6,54.0,66.9,60.0,52.3,96,95,90,30.02,29.81,17,4,18,1.25
2014-4-7,75.7,69.1,57.6,70.5,65.9,51.4,96,90,78,29.83,29.66,22,3,27,1.18
2014-4-8,67.3,56.3,48.2,51.8,47.0,43.0,90,73,44,29.92,29.76,19,3,21,0.00
2014-4-9,71.8,58.6,48.6,50.5,45.8,38.8,93,67,31,30.21,29.92,13,2,18,0.00
2014-4-10,77.7,61.1,43.7,50.7,45.1,40.3,95,62,28,30.30,30.17,11,1,15,0.00
2014-4-11,77.7,63.7,48.6,60.1,54.4,46.6,95,74,49,30.27,30.13,9,1,10,0.00
2014-4-12,83.1,67.9,51.6,60.1,55.5,49.8,94,68,38,30.21,30.07,13,1,15,0.00
2014-4-13,82.9,70.2,57.6,66.0,59.4,55.9,96,72,43,30.13,29.98,20,2,20,0.00
2014-4-14,79.2,67.9,62.4,66.4,63.6,57.6,96,87,60,29.99,29.76,16,2,18,1.06
2014-4-15,65.3,52.7,43.9,64.0,48.2,37.4,97,85,60,30.15,29.72,20,2,27,1.49
2014-4-16,66.2,51.1,37.2,42.6,37.6,32.0,86,62,36,30.27,30.14,15,3,17,0.00
2014-4-17,70.5,59.4,48.7,58.1,51.5,42.6,86,75,61,30.31,30.19,16,6,17,0.00
2014-4-18,61.9,56.3,54.3,57.2,54.5,52.9,96,94,82,30.22,29.93,15,4,24,2.49
2014-4-19,69.4,60.6,53.8,58.8,55.5,51.6,94,84,66,30.14,30.01,10,1,16,0.00
2014-4-20,67.5,58.6,54.3,57.9,53.7,50.7,93,84,69,30.22,30.09,13,1,16,0.00
2014-4-21,79.9,65.1,50.2,60.3,54.5,48.7,96,72,39,30.18,29.99,8,1,8,0.00
2014-4-22,79.2,67.4,56.8,64.0,59.8,55.4,95,78,53,29.99,29.84,15,2,15,0.00
2014-4-23,84.2,70.6,59.5,66.4,61.6,58.1,97,76,43,29.97,29.88,10,1,10,0.00
2014-4-24,84.7,72.7,64.4,68.4,63.2,59.0,94,75,45,30.00,29.88,10,2,13,0.00
2014-4-25,84.0,73.1,64.0,68.5,64.4,60.8,95,77,48,29.97,29.89,14,3,17,0.00
2014-4-26,86.4,73.2,58.1,67.6,62.2,56.1,94,72,42,30.03,29.92,10,1,10,0.00
2014-4-27,82.8,72.9,66.0,71.1,66.6,62.4,96,82,60,29.99,29.86,13,2,16,0.00
2014-4-28,86.2,76.6,67.3,73.4,69.9,64.8,95,81,59,29.89,29.73,19,3,22,0.00
2014-4-29,76.5,68.5,64.4,72.5,65.9,62.4,95,92,78,29.90,29.68,26,2,34,0.79
2014-4-30,72.9,69.5,65.1,67.5,65.8,63.0,94,88,82,30.01,29.74,17,-28,22,0.53
2014-5-1,67.5,60.4,55.2,63.0,52.9,49.1,89,77,58,30.09,29.96,8,1,12,0.00
2014-5-2,73.8,63.8,56.8,55.6,52.7,49.1,94,70,45,30.03,29.90,7,1,9,0.02
2014-5-3,78.8,66.5,53.8,53.8,50.1,45.3,85,59,33,30.09,29.97,13,1,14,0.00
2014-5-4,89.1,71.1,54.1,61.0,55.0,50.5,92,62,30,30.15,30.03,9,1,9,0.00
2014-5-5,88.5,73.6,57.7,66.0,58.7,55.0,93,63,35,30.08,29.95,10,1,10,0.00
2014-5-6,86.4,71.6,57.6,64.4,58.4,55.0,95,67,39,30.05,29.94,9,1,10,0.00
2014-5-7,85.6,72.0,57.7,66.2,60.8,55.8,96,71,43,30.13,30.00,8,1,14,0.00
2014-5-8,88.3,74.4,59.7,69.3,64.6,57.4,96,74,44,30.18,30.07,11,1,16,0.00
2014-5-9,83.7,75.7,70.5,72.0,69.8,67.8,94,83,62,30.15,30.03,13,2,16,0.00
2014-5-10,78.4,73.4,70.9,73.6,70.5,68.5,96,91,82,30.08,30.01,9,1,12,0.18
2014-5-11,87.4,77.5,71.6,73.8,70.4,66.9,96,81,53,30.15,30.03,11,2,13,0.06
2014-5-12,86.4,73.4,68.7,73.9,68.7,65.3,96,86,63,30.16,30.05,12,1,15,0.05
2014-5-13,88.5,76.9,65.7,72.3,67.4,63.5,96,75,47,30.12,30.01,11,1,14,0.01
2014-5-14,73.8,69.6,65.8,71.2,67.6,64.4,96,94,89,30.06,29.91,13,1,20,1.16
2014-5-15,68.2,60.5,53.2,65.5,53.7,48.4,97,80,54,30.14,29.94,15,2,19,0.62
2014-5-16,74.8,62.4,48.0,56.5,51.5,46.4,95,70,46,30.18,30.08,17,2,20,0.00
2014-5-17,82.2,68.9,54.7,62.4,56.7,50.7,89,67,46,30.20,30.09,11,1,12,0.00
2014-5-18,84.9,71.9,58.6,64.9,59.9,55.4,93,69,39,30.20,30.11,9,1,10,0.00
2014-5-19,87.3,73.7,60.4,66.6,61.1,55.9,94,68,36,30.21,30.13,8,1,8,0.00
2014-5-20,87.6,75.2,61.9,66.7,63.2,59.5,93,69,42,30.24,30.13,9,1,9,0.00
2014-5-21,86.5,76.3,67.5,68.5,66.6,64.6,96,74,51,30.23,30.11,11,1,11,0.00
2014-5-22,88.3,75.8,62.4,67.6,64.6,58.8,95,71,40,30.20,30.06,11,2,12,0.00
2014-5-23,90.1,77.7,64.6,70.5,67.2,62.6,94,73,47,30.14,30.03,12,1,12,0.00
2014-5-24,90.3,78.7,67.5,72.5,68.4,64.8,92,73,45,30.12,30.02,7,1,9,0.00
2014-5-25,94.3,80.1,68.7,72.0,67.0,59.2,94,67,36,30.11,30.02,17,1,21,0.00
2014-5-26,89.8,74.7,67.6,73.6,68.6,61.9,94,82,55,30.19,30.08,20,1,24,0.90
2014-5-27,84.9,75.2,69.3,75.4,70.6,67.1,96,86,69,30.15,30.01,9,1,9,0.11
2014-5-28,87.4,77.5,69.6,74.3,70.2,66.4,96,80,50,30.05,29.94,12,1,15,0.01
2014-5-29,72.5,70.0,67.6,70.0,68.3,65.8,95,94,91,30.04,29.95,9,1,12,0.83
2014-5-30,86.2,72.9,67.8,73.2,69.1,66.4,96,89,62,30.05,29.96,14,1,27,0.13
2014-5-31,85.1,75.6,68.7,74.1,70.1,67.3,95,84,65,30.07,29.98,10,1,10,0.00
2014-6-1,85.8,76.0,68.2,73.4,70.0,66.2,95,82,61,30.12,30.03,15,3,20,0.02
2014-6-2,79.3,73.5,69.4,71.4,67.8,62.2,95,82,75,30.15,30.07,14,4,16,0.03
2014-6-3,84.6,76.5,69.6,73.0,70.2,68.0,96,82,65,30.11,30.00,9,1,11,0.04
2014-6-4,88.2,78.1,68.7,73.6,70.3,67.3,96,78,58,30.01,29.88,8,1,9,0.00
2014-6-5,90.0,78.6,68.0,74.7,70.6,66.2,95,78,54,29.97,29.87,10,1,11,0.00
2014-6-6,92.1,80.0,70.3,76.5,72.5,68.2,96,80,55,30.02,29.86,16,2,16,0.13
2014-6-7,91.2,77.1,68.5,79.7,72.0,67.1,96,85,63,30.01,29.90,7,1,14,0.14
2014-6-8,91.6,78.3,70.9,78.4,72.1,67.8,94,82,62,29.99,29.85,14,1,16,0.02
2014-6-9,91.6,79.4,69.4,76.3,72.4,68.0,96,81,54,29.97,29.85,10,2,12,0.03
2014-6-10,88.9,76.0,68.5,77.0,71.7,64.6,96,87,59,29.96,29.89,26,1,29,0.54
2014-6-11,83.8,73.9,67.3,73.9,69.0,64.9,96,85,70,29.94,29.80,12,2,14,0.18
2014-6-12,86.4,77.4,70.2,71.2,68.4,64.2,95,76,50,29.96,29.86,13,1,14,0.16
2014-6-13,81.3,75.2,68.9,74.7,69.6,66.0,95,83,64,29.97,29.89,14,2,16,0.00
2014-6-14,89.2,77.3,67.6,72.9,69.6,66.0,96,79,52,30.03,29.94,7,1,9,0.00
2014-6-15,90.3,79.2,69.6,73.4,70.4,67.5,95,76,50,30.12,30.00,9,1,13,0.00
2014-6-16,91.8,80.4,69.4,74.3,71.4,67.6,95,76,50,30.19,30.06,8,1,9,0.00
2014-6-17,91.2,80.9,70.5,76.3,72.7,67.1,95,78,55,30.18,30.04,21,1,21,2.08
2014-6-18,92.7,81.2,70.5,75.9,71.5,66.7,97,75,45,30.13,30.03,7,0,8,2.09
2014-6-19,93.0,82.4,72.1,75.2,72.3,69.4,95,73,50,30.14,30.04,10,1,11,0.00
2014-6-20,94.5,80.4,70.9,77.9,72.2,69.3,95,78,50,30.09,29.97,15,1,15,0.00
2014-6-21,93.7,82.3,71.2,76.3,72.8,69.4,94,75,48,30.02,29.88,9,1,10,0.00
2014-6-22,89.4,80.1,73.0,77.9,73.3,70.7,93,81,60,29.98,29.86,8,1,16,0.04
2014-6-24,85.8,76.3,72.1,78.6,72.9,69.4,95,90,72,30.10,30.03,11,1,11,0.38
2014-6-25,88.9,78.7,72.0,77.7,73.1,70.0,96,84,60,30.12,30.00,10,1,10,0.08
2014-6-26,87.1,78.6,73.6,75.9,72.9,70.7,95,83,67,30.10,29.98,9,1,9,0.01
2014-6-27,91.2,79.6,71.4,75.6,71.9,69.1,95,79,54,30.14,29.99,11,1,11,0.26
2014-6-28,91.2,79.7,69.6,77.9,72.8,67.5,95,81,60,30.18,30.05,9,1,9,0.00
2014-6-29,93.7,83.0,73.9,78.1,74.5,72.3,96,77,54,30.19,30.05,7,1,7,0.00
2014-6-30,92.7,83.0,74.1,78.8,75.1,72.5,96,79,55,30.08,29.95,8,1,10,0.00
2014-7-1,93.3,83.7,73.8,78.7,75.1,24.8,95,77,53,30.02,29.89,9,1,9,0.00
2014-7-2,94.7,84.9,76.5,77.5,75.1,69.0,93,74,50,30.01,29.90,9,1,11,0.00
2014-7-3,90.2,79.8,69.9,74.3,69.6,66.8,91,72,53,30.06,29.93,15,1,15,0.00
2014-7-4,87.8,76.9,66.2,66.9,64.5,61.3,89,68,43,30.14,30.06,12,1,13,0.00
2014-7-5,92.3,78.5,65.4,71.5,66.8,63.1,93,70,46,30.14,30.04,7,0,8,0.00
2014-7-6,93.0,80.0,69.3,73.8,68.9,61.8,89,71,39,30.07,29.96,8,1,8,0.00
2014-7-7,92.4,81.1,70.5,74.0,69.4,63.9,93,70,42,30.06,29.97,11,2,12,0.00
2014-7-8,92.2,81.4,70.2,74.1,70.1,66.2,94,71,45,30.12,29.99,11,2,11,0.00
2014-7-9,92.5,77.5,71.9,77.0,71.6,69.5,94,84,53,30.08,29.97,21,2,21,0.32
2014-7-10,89.8,76.0,70.3,76.4,71.7,68.8,96,87,60,30.09,30.02,10,1,10,0.26
2014-7-11,93.5,81.1,71.1,76.8,72.2,67.4,97,77,45,30.14,30.04,10,1,10,0.10
2014-7-12,92.9,79.6,72.5,77.5,73.1,70.1,95,82,53,30.15,30.02,22,2,22,0.00
2014-7-13,92.5,80.4,72.1,76.7,73.4,70.0,96,81,52,30.14,30.00,9,1,9,0.00
2014-7-14,91.1,81.0,73.2,79.4,74.3,71.7,96,81,58,30.07,29.93,12,1,12,0.00
2014-7-15,87.6,76.8,70.8,77.7,73.1,69.0,96,89,67,29.98,29.85,14,2,15,0.00
2014-7-16,86.5,77.2,69.5,74.1,69.0,62.5,97,78,45,29.94,29.86,13,1,15,0.00
2014-7-17,87.9,75.9,63.9,66.5,63.1,59.5,92,67,41,30.02,29.93,8,1,9,0.00
2014-7-18,85.7,75.7,67.3,75.4,69.7,64.3,94,82,66,30.06,29.99,13,1,13,0.00
2014-7-19,84.3,76.0,72.4,77.6,73.5,70.5,96,92,79,30.04,29.97,12,1,14,0.00
2014-7-20,87.9,78.6,74.7,78.2,74.8,73.2,96,89,66,30.02,29.95,14,1,14,0.00
2014-7-21,85.0,76.9,73.9,77.9,74.0,71.5,96,91,75,30.04,29.95,14,1,14,0.00
2014-7-22,85.8,79.2,73.2,76.1,74.1,71.7,96,85,68,30.07,29.99,10,1,10,0.00
2014-7-23,90.3,80.1,72.0,76.5,73.4,70.5,96,81,60,30.08,29.95,9,1,9,0.00
2014-7-24,89.3,79.1,71.1,76.6,73.2,69.5,95,83,62,30.02,29.92,11,1,11,0.00
2014-7-25,90.3,79.2,72.7,77.9,74.2,71.2,96,85,60,30.04,29.93,16,1,18,0.00
2014-7-26,92.7,81.9,72.8,79.1,75.1,71.9,97,82,56,30.07,29.97,9,1,9,0.00
2014-7-27,93.2,83.8,75.1,80.2,76.8,73.9,96,81,59,30.06,29.95,11,2,11,0.00
2014-7-28,92.7,81.0,74.1,79.6,75.7,71.8,95,85,62,30.00,29.89,14,3,14,0.00
2014-7-29,88.4,78.2,68.4,72.4,67.4,64.0,95,72,47,30.03,29.93,13,1,13,0.00
2014-7-30,85.5,74.4,62.8,65.9,61.5,55.8,93,67,39,30.05,29.98,10,1,10,0.00
2014-7-31,87.7,75.3,62.1,68.9,63.8,58.3,95,71,41,30.04,29.96,7,0,8,0.00
2014-8-1,87.0,77.8,69.1,74.0,70.3,66.3,93,79,56,30.01,29.94,8,1,9,0.00
2014-8-2,89.3,79.8,72.9,75.7,72.4,70.2,93,79,55,30.03,29.94,9,1,10,0.00
2014-8-3,86.4,77.5,71.5,76.2,72.2,67.4,93,84,66,30.03,29.94,15,2,15,0.00
2014-8-4,90.0,79.3,68.8,77.0,72.5,67.0,95,81,58,30.02,29.93,13,1,13,0.00
2014-8-5,93.7,82.0,71.7,76.5,72.9,70.0,96,76,50,30.08,29.97,9,0,9,0.00
2014-8-6,96.1,81.3,73.3,76.5,72.6,67.9,95,77,43,30.06,29.95,13,1,13,0.00
2014-8-7,95.8,82.1,72.2,76.9,73.8,70.6,95,78,49,30.02,29.90,14,1,14,0.00
2014-8-8,91.8,81.6,73.8,78.7,74.8,72.0,95,81,59,30.03,29.93,12,1,13,0.00
2014-8-9,92.2,78.2,72.8,79.2,74.4,70.8,95,89,60,30.03,29.94,11,1,15,0.16
2014-8-10,89.7,78.2,71.4,77.3,73.7,70.2,97,87,61,30.05,29.94,11,1,12,0.07
2014-8-11,90.2,79.8,72.8,79.3,74.8,71.6,96,85,65,30.03,29.89,11,1,11,0.01
2014-8-12,88.8,77.5,72.6,78.2,73.3,70.8,95,87,67,29.95,29.88,11,1,11,0.00
2014-8-13,91.8,80.2,71.6,76.0,72.5,69.4,96,79,55,29.98,29.91,9,1,9,0.00
2014-8-14,90.7,79.4,68.0,70.3,67.2,64.0,88,68,46,30.03,29.92,15,1,15,0.00
2014-8-15,91.0,79.5,68.8,70.1,66.7,63.6,93,68,41,30.04,29.93,12,1,13,0.00
2014-8-16,93.2,79.8,67.6,74.5,69.2,65.5,94,73,45,30.06,29.97,12,1,14,0.00
2014-8-17,84.7,76.9,72.6,78.0,73.4,70.5,95,89,78,30.07,29.98,12,1,12,0.00
2014-8-18,88.6,75.7,71.1,77.7,72.0,68.8,96,89,63,30.03,29.92,15,1,16,0.00
2014-8-19,91.9,78.2,70.8,78.5,73.2,69.0,97,86,56,30.01,29.91,16,3,16,0.00
2014-8-20,90.5,78.2,69.9,78.8,73.1,68.2,96,85,65,30.10,29.94,10,1,10,0.00
2014-8-21,97.0,83.5,72.4,79.0,75.0,70.8,96,78,50,30.14,30.04,9,1,10,0.00
2014-8-22,96.7,85.4,75.3,78.5,75.6,73.0,95,75,49,30.10,29.97,10,1,10,0.00
2014-8-23,98.2,85.9,75.3,78.4,75.1,72.5,93,73,47,30.01,29.86,11,1,11,0.00
2014-8-24,97.8,83.4,74.4,78.6,74.4,71.2,93,77,49,29.92,29.79,18,1,21,0.00
2014-8-25,89.7,80.5,74.8,74.2,70.5,65.0,94,74,49,29.99,29.90,14,3,14,0.00
2014-8-26,91.4,79.4,66.8,72.3,67.6,61.1,83,68,50,30.05,29.95,17,2,17,0.00
2014-8-27,94.3,80.7,69.9,73.0,67.6,62.8,85,67,36,30.06,29.95,9,1,9,0.00
2014-8-28,92.3,79.5,67.7,70.6,66.3,61.7,91,67,38,30.02,29.92,10,1,10,0.00
2014-8-29,94.3,81.6,69.8,76.7,70.9,66.8,91,72,45,30.05,29.94,14,1,15,0.00
2014-8-30,94.0,82.2,74.9,78.2,74.8,73.0,95,79,55,30.10,30.01,12,1,13,0.00
2014-8-31,95.8,81.3,74.4,78.0,73.4,70.5,93,78,47,30.13,30.02,10,2,11,0.00
2014-9-1,95.5,80.9,71.9,77.7,72.9,69.3,92,79,45,30.11,30.00,12,1,12,0.06
2014-9-2,95.4,84.0,72.6,78.3,74.1,71.1,96,74,48,30.10,29.95,11,1,12,0.02
2014-9-3,89.9,78.4,73.2,77.1,73.5,70.5,93,86,63,30.05,29.97,15,1,15,0.02
2014-9-4,89.0,77.0,72.5,78.2,73.3,70.8,95,89,63,30.10,30.01,8,1,9,0.00
2014-9-5,92.5,78.7,70.1,76.0,72.1,68.9,97,82,52,30.14,29.98,13,1,14,0.00
2014-9-6,87.5,77.5,71.9,78.1,73.9,70.6,96,89,69,30.05,29.92,9,0,10,0.00
2014-9-7,90.3,78.3,72.9,77.7,74.1,71.4,96,88,62,29.99,29.89,9,1,12,0.00
2014-9-8,88.4,76.5,73.0,78.5,73.5,70.6,96,91,68,30.04,29.92,12,1,16,0.00
2014-9-9,89.0,78.5,72.5,76.8,73.6,71.6,97,86,63,30.09,29.95,9,2,11,0.00
2014-9-10,90.2,80.0,72.7,77.8,74.4,71.2,96,84,61,30.03,29.93,11,1,11,0.00
2014-9-11,92.9,82.1,72.9,77.4,73.6,70.6,95,78,50,30.04,29.92,10,1,10,0.00
2014-9-12,94.0,82.2,72.9,78.3,74.1,71.4,95,78,52,30.04,29.92,6,1,9,0.00
2014-9-13,91.8,80.7,73.4,78.8,74.5,71.2,95,83,61,30.07,29.95,9,1,11,0.00
2014-9-14,92.8,80.8,72.7,77.4,73.6,70.7,97,80,50,30.13,30.03,10,1,10,0.00
2014-9-15,91.5,80.1,72.5,76.8,73.7,70.7,95,82,57,30.13,30.01,9,1,10,0.00
2014-9-16,89.9,76.8,71.3,78.0,73.0,70.1,96,89,62,30.06,29.93,15,1,18,0.00
2014-9-17,88.7,78.1,70.9,76.3,71.7,69.2,97,82,58,29.98,29.86,9,1,9,0.00
2014-9-18,88.3,77.4,67.5,70.6,67.4,63.4,95,73,48,29.96,29.88,7,0,9,0.00
2014-9-19,89.5,76.9,69.6,71.8,67.9,63.8,92,75,47,30.02,29.92,15,2,18,0.00
2014-9-20,81.3,72.8,68.3,70.5,68.0,66.0,94,85,67,30.06,29.96,11,2,14,0.00
2014-9-21,89.5,76.6,65.4,69.5,66.6,63.6,95,74,46,30.05,29.94,9,0,9,0.00
2014-9-22,85.5,72.4,62.6,74.6,67.0,60.5,95,84,60,30.05,29.97,10,1,10,0.00
2014-9-23,80.0,68.5,59.1,67.2,61.6,55.3,95,80,56,30.13,30.03,11,2,12,0.00
2014-9-24,80.5,70.5,63.5,64.9,62.1,59.5,92,76,56,30.21,30.12,7,3,13,0.00
2014-9-25,72.2,66.4,61.6,64.4,61.7,59.1,94,85,75,30.20,30.10,6,2,11,0.00
2014-9-26,81.5,69.8,60.7,67.7,63.5,59.2,96,82,57,30.12,30.02,5,1,11,0.00
2014-9-27,78.7,72.3,67.1,69.9,67.5,64.3,93,85,72,30.09,30.01,8,4,16,0.00
2014-9-28,75.3,72.5,70.0,72.1,70.0,67.5,95,92,87,30.05,29.96,7,2,11,0.00
2014-9-29,82.2,74.2,70.3,74.4,71.1,68.3,96,90,75,29.96,29.84,5,2,11,0.00
2014-9-30,79.7,72.0,66.2,70.9,68.2,64.2,94,88,73,29.93,29.85,3,0,7,0.00
2014-10-1,85.7,73.3,62.5,70.4,66.2,61.3,97,80,52,30.00,29.89,5,1,13,0.00
2014-10-2,86.5,76.4,66.7,73.3,69.9,64.9,95,82,61,30.07,29.95,4,1,10,0.00
2014-10-3,80.7,74.7,66.5,76.1,71.0,64.7,96,89,72,30.00,29.88,6,2,13,0.00
2014-10-4,69.5,62.3,51.2,65.0,50.3,38.0,94,68,34,30.03,29.95,7,2,17,0.00
2014-10-5,75.5,60.1,44.8,51.1,45.7,41.3,95,63,31,30.10,29.99,3,1,9,0.00
2014-10-6,82.7,67.1,51.1,61.5,55.4,48.3,91,69,42,30.09,29.97,4,1,11,0.00
2014-10-7,86.8,73.4,60.8,69.4,64.6,57.6,92,76,51,30.09,30.00,5,1,11,0.00
2014-10-8,89.9,76.5,65.8,73.1,68.4,64.5,97,78,47,30.15,30.03,4,0,9,0.00
2014-10-9,89.8,76.9,66.1,71.7,67.1,64.5,95,75,46,30.12,30.00,3,1,10,0.00
2014-10-10,88.5,77.0,64.7,73.5,68.6,63.1,97,77,53,30.09,29.98,4,1,10,0.00
2014-10-11,88.3,76.1,66.9,74.1,67.7,61.6,97,78,42,30.08,29.95,5,1,9,0.00
2014-10-12,88.7,76.5,66.0,73.6,67.6,64.6,96,76,50,30.05,29.95,4,1,12,0.00
2014-10-13,82.9,74.7,69.9,74.3,71.1,67.3,95,89,74,30.02,29.85,7,4,22,0.00
2014-10-14,75.3,68.2,58.6,71.1,62.8,55.9,97,84,58,29.97,29.79,9,3,19,0.00
2014-10-15,73.5,62.4,53.6,56.4,51.0,45.1,94,70,37,29.99,29.90,10,2,18,0.00
2014-10-16,77.3,62.1,49.1,56.4,50.0,46.0,91,68,35,30.00,29.92,10,2,19,0.00
2014-10-17,81.3,65.4,50.3,58.1,53.6,48.9,97,70,37,30.03,29.93,4,1,9,0.00
2014-10-18,84.0,68.4,57.2,67.9,60.4,54.9,95,77,56,30.02,29.91,7,2,14,0.00
2014-10-19,75.3,61.9,50.1,55.2,51.1,47.2,90,70,41,30.13,30.02,6,1,14,0.00
2014-10-20,77.7,62.5,49.1,60.6,53.8,47.4,95,76,47,30.09,29.97,5,1,9,0.00
2014-10-21,80.8,64.7,51.6,58.9,54.6,49.4,93,73,40,30.05,29.94,3,0,9,0.00
2014-10-22,75.5,61.7,52.0,55.9,51.0,46.6,94,71,40,30.11,30.00,6,1,12,0.00
2014-10-23,74.9,59.7,46.1,52.2,48.0,42.9,89,68,36,30.12,30.01,4,1,9,0.00
2014-10-24,77.0,62.0,49.7,53.9,49.6,44.5,90,68,36,30.08,29.98,3,0,8,0.00
2014-10-25,77.7,61.9,48.2,56.5,51.3,44.4,92,71,44,30.10,30.02,4,0,11,0.00
2014-10-26,84.2,67.8,53.4,68.2,60.8,51.4,95,80,53,30.07,29.96,3,0,10,0.00
2014-10-27,84.7,70.4,57.5,68.2,63.0,56.4,97,80,49,30.08,30.00,4,1,14,0.00
2014-10-28,80.7,69.3,58.4,67.1,63.2,57.3,97,83,54,30.16,30.07,5,1,9,0.00
2014-10-29,81.5,72.2,65.9,70.0,66.6,61.6,95,83,61,30.09,29.96,7,1,15,0.00
2014-10-30,71.3,61.9,50.0,61.6,48.9,42.9,86,65,38,30.09,29.97,4,1,14,0.00
2014-10-31,72.2,56.9,42.4,50.9,46.2,40.1,93,70,41,30.07,29.88,8,2,16,0.00
2014-11-1,57.0,46.9,38.4,43.5,33.0,27.5,78,59,42,30.32,30.07,6,2,18,0.00
2014-11-2,66.0,48.2,36.4,39.3,34.6,30.3,89,64,27,30.41,30.30,2,1,8,0.00
2014-11-3,68.5,52.4,39.3,41.9,36.2,32.0,80,58,29,30.45,30.34,6,1,13,0.00
2014-11-4,74.8,58.8,41.8,57.7,49.4,35.7,90,72,50,30.37,30.22,4,1,10,0.00
2014-11-5,77.6,65.8,54.4,63.8,58.5,52.4,94,79,57,30.26,30.14,5,1,14,0.00
2014-11-6,75.3,63.9,54.4,68.5,60.3,45.8,96,88,72,30.16,30.02,7,2,15,0.00
2014-11-7,63.6,51.5,43.3,45.7,42.5,39.2,92,73,46,30.14,30.01,4,1,11,0.00
2014-11-8,61.7,49.8,42.0,48.0,43.9,39.6,94,81,58,30.06,29.95,2,0,4,0.00
2014-11-9,70.7,54.6,44.5,50.3,46.2,42.6,95,76,45,30.04,29.93,4,0,9,0.00
2014-11-10,74.0,56.3,40.3,51.0,46.6,38.6,96,73,40,30.07,29.97,4,0,8,0.00
2014-11-11,73.3,58.4,42.1,59.3,52.6,40.5,96,83,57,30.08,29.97,6,1,10,0.00
2014-11-12,71.1,60.3,51.9,64.0,56.7,47.9,96,88,76,30.12,30.00,4,1,10,0.00
2014-11-13,51.8,43.0,36.7,48.1,39.1,30.2,94,86,77,30.22,30.09,3,1,12,0.00
2014-11-14,50.5,39.5,31.4,30.7,25.1,22.1,79,58,33,30.29,30.19,4,1,15,0.00
2014-11-15,59.4,44.0,30.2,39.9,32.5,22.6,84,65,40,30.36,30.23,6,1,10,0.00
2014-11-16,67.5,57.1,42.3,63.0,52.2,37.9,93,84,73,30.23,29.87,5,2,14,0.00
2014-11-17,71.0,51.2,34.3,68.7,47.1,27.1,95,86,74,30.24,29.75,11,3,23,0.00
2014-11-18,44.1,33.5,25.8,27.3,21.3,14.9,82,63,32,30.46,30.24,4,1,14,0.00
2014-11-19,56.7,38.8,21.8,29.0,22.1,16.5,87,56,25,30.50,30.31,4,0,9,0.00
2014-11-20,66.0,48.6,31.2,47.4,39.5,27.9,92,73,46,30.34,30.20,4,1,9,0.01
2014-11-21,68.3,54.2,39.4,50.9,44.1,37.6,96,72,46,30.38,30.26,7,2,15,0.00
2014-11-22,67.1,56.6,47.2,58.5,50.2,39.0,95,80,63,30.33,29.99,11,6,21,0.00
2014-11-23,73.4,64.3,59.9,71.4,62.7,58.5,97,95,86,30.00,29.66,13,4,32,0.00
2014-11-24,79.3,69.1,56.5,67.6,61.8,48.7,97,79,51,30.02,29.75,8,2,17,0.00
2014-11-25,56.5,52.5,49.2,48.7,43.5,38.7,90,72,61,30.13,30.01,4,0,12,0.00
2014-11-26,61.4,50.3,39.2,41.5,35.6,30.6,80,59,34,30.24,30.04,8,3,18,0.00
2014-11-27,56.5,47.1,37.9,41.4,36.6,32.6,88,69,43,30.44,30.19,7,2,17,0.00
2014-11-28,58.6,43.0,31.5,34.8,31.2,26.0,93,67,30,30.45,30.28,3,0,8,0.00
2014-11-29,69.0,52.1,35.2,53.3,43.6,31.8,92,75,48,30.34,30.21,5,1,10,0.00
2014-11-30,74.3,58.3,44.8,61.0,53.7,43.6,97,86,59,30.35,30.24,5,1,10,0.00
2014-12-1,75.7,61.3,49.7,58.5,53.7,48.6,97,78,49,30.40,30.28,4,1,10,0.00
2014-12-2,77.0,62.8,50.3,63.3,56.7,47.8,93,82,60,30.32,30.18,4,1,9,0.00
2014-12-3,77.4,65.7,55.0,65.2,59.5,53.6,96,82,59,30.26,30.16,4,0,8,0.00
2014-12-4,78.8,67.0,57.7,63.7,59.4,55.6,94,78,54,30.28,30.17,4,1,11,0.48
2014-12-5,78.2,65.7,55.0,64.3,59.1,53.6,96,81,53,30.30,30.20,6,2,15,0.00
2014-12-6,72.5,64.4,54.8,66.4,61.1,48.3,96,89,78,30.25,30.12,7,2,18,0.00
2014-12-7,63.4,55.1,46.5,48.7,46.8,43.4,89,74,57,30.29,30.17,10,2,17,0.00
2014-12-8,55.2,49.3,38.9,48.0,42.8,36.6,92,79,70,30.28,30.20,8,2,16,0.00
2014-12-9,62.0,47.5,34.2,44.8,37.8,32.8,95,72,41,30.23,30.11,6,1,17,0.00
2014-12-10,56.7,44.3,34.8,38.3,34.9,30.3,85,71,47,30.26,30.13,3,1,11,0.00
2014-12-11,57.5,43.9,32.8,37.8,35.0,30.5,92,73,45,30.29,30.15,5,1,11,0.00
2014-12-12,64.1,47.9,36.2,35.9,33.4,30.5,87,61,30,30.36,30.25,4,1,9,0.00
2014-12-13,66.5,49.8,35.5,42.6,34.7,27.9,87,60,27,30.30,30.16,3,1,10,0.00
2014-12-14,63.8,48.4,38.0,44.1,40.8,36.4,95,77,47,30.19,30.07,5,1,9,0.00
2014-12-15,72.0,53.6,35.3,56.3,46.1,33.7,95,78,46,30.14,30.03,6,1,12,0.01
2014-12-16,67.0,59.1,45.5,62.7,49.4,39.0,96,73,40,30.21,30.02,9,3,17,0.26
2014-12-17,60.4,48.3,38.2,45.6,41.2,36.1,93,77,57,30.26,30.14,4,1,9,0.00
2014-12-18,64.9,51.3,39.1,43.7,39.6,33.5,93,68,32,30.24,30.10,3,0,7,0.00
2014-12-19,58.4,51.1,46.0,46.5,41.2,37.2,95,71,47,30.22,30.05,7,1,13,0.26
2014-12-20,55.4,50.2,45.9,51.5,48.0,44.5,96,92,84,30.19,30.09,6,2,10,0.14
2014-12-21,55.9,53.8,51.8,53.4,51.8,49.8,96,93,88,30.14,30.00,6,2,13,0.00
2014-12-22,59.1,55.1,51.9,58.2,54.1,51.0,97,96,94,30.00,29.81,7,3,14,0.08
2014-12-23,66.0,62.6,58.2,64.8,61.5,57.1,98,96,93,29.82,29.66,9,4,24,1.71
2014-12-24,64.3,56.0,47.3,62.9,53.8,41.1,98,92,79,30.05,29.60,11,4,20,0.73
2014-12-25,58.0,46.1,38.0,42.6,39.8,36.2,94,80,54,30.30,30.04,4,1,9,0.00
2014-12-26,62.5,48.2,36.7,45.5,41.3,35.1,95,79,50,30.34,30.22,7,1,9,0.01
2014-12-27,60.2,51.3,47.2,55.4,48.1,42.5,96,89,81,30.31,30.12,8,2,17,0.45
2014-12-28,73.3,65.1,56.6,69.1,63.2,54.0,97,94,85,30.12,30.01,4,1,10,0.39
2014-12-29,63.5,58.8,54.1,62.6,56.8,53.0,97,93,85,30.15,30.00,7,1,14,0.01
2014-12-30,55.9,50.6,40.3,53.3,48.0,38.2,97,91,78,30.38,30.13,3,1,11,0.00
2014-12-31,47.4,43.9,38.4,45.3,42.1,36.3,96,93,91,30.44,30.34,6,1,9,0.01
2015-1-1,60.8,49.6,38.2,49.1,44.5,36.9,95,83,64,30.35,30.23,6,1,10,0.00
2015-1-2,63.1,56.4,48.8,59.2,52.9,43.9,96,88,82,30.29,30.17,8,3,13,0.00